Time;durP1;ratioP1;P1;durP2;ratioP2;P2;SDS_P1;SDS_P2;PMS_P1;PMS_P2;Temp;Humidity;BMP_temperature;BMP_pressure;BME280_temperature;BME280_humidity;BME280_pressure;Samples;Min_cycle;Max_cycle;Signal;HPM_P1;HPM_P2
2023/04/03 03:59:44;;;;;;;7.00;4.70;;;;;;;8.35;57.62;100493.19;5606275;31;82291;-57
2023/04/03 04:02:47;;;;;;;5.90;4.28;;;;;;;8.35;57.62;100493.19;5583900;32;33141;-57
2023/04/03 04:05:50;;;;;;;6.15;4.50;;;;;;;7.93;57.13;100494.87;5583898;31;33553;-57
2023/04/03 04:08:53;;;;;;;4.90;3.78;;;;;;;7.64;56.52;100491.75;5579407;31;34357;-57
2023/04/03 04:11:56;;;;;;;5.40;4.37;;;;;;;7.57;57.85;100491.19;5564216;32;33534;-57
2023/04/03 04:14:58;;;;;;;6.53;4.47;;;;;;;7.88;58.91;100494.03;5564220;32;33621;-57
2023/04/03 04:18:03;;;;;;;5.25;3.72;;;;;;;8.09;57.30;100498.41;5563915;32;33003;-57
2023/04/03 04:21:06;;;;;;;6.05;4.70;;;;;;;7.99;56.08;100498.37;5564073;32;34284;-57
2023/04/03 04:24:08;;;;;;;5.70;4.60;;;;;;;8.34;71.59;100495.03;5564084;32;34182;-57
2023/04/03 04:27:12;;;;;;;6.05;4.55;;;;;;;8.35;57.49;100495.84;5563771;32;33348;-57
2023/04/03 04:30:15;;;;;;;5.80;4.35;;;;;;;8.10;56.38;100499.22;5564029;32;33149;-57
2023/04/03 04:33:17;;;;;;;8.27;5.03;;;;;;;7.79;56.85;100499.06;5563760;32;33436;-57
2023/04/03 04:36:20;;;;;;;6.22;4.72;;;;;;;8.08;58.58;100506.69;5564057;32;33547;-57
2023/04/03 04:39:23;;;;;;;6.32;4.28;;;;;;;7.94;56.58;100504.47;5563782;32;33465;-57
2023/04/03 04:42:26;;;;;;;5.40;4.20;;;;;;;7.86;57.95;100507.66;5563722;32;33312;-57
2023/04/03 04:45:28;;;;;;;6.62;4.75;;;;;;;7.67;56.73;100504.59;5563678;32;33439;-57
2023/04/03 04:48:31;;;;;;;5.80;4.40;;;;;;;7.61;57.14;100507.50;5563799;32;33346;-57
2023/04/03 04:51:34;;;;;;;5.78;4.45;;;;;;;7.61;60.38;100510.97;5563605;32;34105;-57
2023/04/03 04:54:53;;;;;;;6.43;4.97;;;;;;;7.46;58.03;100514.34;5563616;32;34573;-57
2023/04/03 04:57:55;;;;;;;6.80;4.35;;;;;;;7.84;74.14;100516.97;5563469;32;33509;-57
2023/04/03 05:01:04;;;;;;;6.50;4.30;;;;;;;7.76;59.00;100519.06;5562438;32;33677;-57
2023/04/03 05:04:06;;;;;;;5.90;4.60;;;;;;;7.64;60.25;100513.12;5563639;32;33425;-57
2023/04/03 05:07:09;;;;;;;5.53;4.47;;;;;;;7.57;59.89;100522.41;5563472;32;34371;-57
2023/04/03 05:10:12;;;;;;;6.43;5.10;;;;;;;7.71;62.95;100519.03;5553955;32;33347;-57
2023/04/03 05:13:16;;;;;;;7.37;4.85;;;;;;;7.90;72.87;100518.63;5550265;32;33459;-57
2023/04/03 05:16:20;;;;;;;8.52;4.68;;;;;;;8.07;72.68;100521.09;5550478;32;33746;-57
2023/04/03 05:19:23;;;;;;;5.80;4.78;;;;;;;7.95;71.24;100524.78;5550164;32;33414;-57
2023/04/03 05:22:25;;;;;;;5.60;4.40;;;;;;;8.18;63.45;100528.13;5550060;32;33291;-57
2023/04/03 05:25:29;;;;;;;9.15;4.68;;;;;;;8.22;58.99;100521.19;5550464;32;33640;-57
2023/04/03 05:28:32;;;;;;;6.57;4.45;;;;;;;8.31;58.80;100516.94;5549749;32;33273;-57
2023/04/03 05:31:35;;;;;;;5.85;4.05;;;;;;;8.34;60.57;100523.62;5550063;32;33745;-57
2023/04/03 05:34:38;;;;;;;6.65;4.37;;;;;;;8.00;58.12;100514.13;5550378;32;33301;-57
2023/04/03 05:37:40;;;;;;;7.05;5.00;;;;;;;8.02;64.22;100523.75;5550053;32;33798;-57
2023/04/03 05:40:43;;;;;;;5.20;3.95;;;;;;;8.65;78.70;100511.19;5550308;32;34371;-57
2023/04/03 05:43:45;;;;;;;6.82;5.65;;;;;;;8.36;59.85;100524.16;5549459;32;33602;-57
2023/04/03 05:46:48;;;;;;;6.22;4.40;;;;;;;8.36;86.85;100532.97;5550119;32;33674;-57
2023/04/03 05:49:50;;;;;;;5.82;4.28;;;;;;;8.84;63.15;100541.72;5549617;32;34012;-57
2023/04/03 05:52:56;;;;;;;6.85;4.53;;;;;;;8.55;57.13;100535.22;5549670;32;33302;-57
2023/04/03 05:56:00;;;;;;;6.03;3.87;;;;;;;8.76;67.35;100547.56;5550164;32;32227;-57
2023/04/03 05:59:07;;;;;;;5.78;4.55;;;;;;;8.44;58.37;100551.22;5549508;32;34354;-57
2023/04/03 06:02:16;;;;;;;5.97;3.80;;;;;;;8.04;57.41;100550.97;5551461;32;32626;-57
2023/04/03 06:05:20;;;;;;;6.22;4.75;;;;;;;7.95;56.51;100558.69;5555152;32;33663;-57
2023/04/03 06:08:23;;;;;;;5.20;4.05;;;;;;;8.12;81.07;100550.50;5567893;32;34406;-57
2023/04/03 06:11:26;;;;;;;5.12;4.22;;;;;;;8.17;56.33;100558.53;5568050;32;33545;-57
2023/04/03 06:14:30;;;;;;;5.50;3.80;;;;;;;8.34;63.75;100556.47;5566956;31;31645;-57
2023/04/03 06:17:32;;;;;;;5.85;4.05;;;;;;;8.27;57.11;100557.78;5564459;32;34403;-57
2023/04/03 06:20:34;;;;;;;4.75;3.70;;;;;;;8.30;57.86;100563.41;5566609;32;33772;-57
2023/04/03 06:23:38;;;;;;;6.65;4.53;;;;;;;8.42;58.14;100563.22;5568496;32;34649;-57
2023/04/03 06:26:41;;;;;;;5.62;3.65;;;;;;;8.56;55.73;100574.22;5568256;32;33685;-57
2023/04/03 06:29:45;;;;;;;5.70;3.80;;;;;;;8.38;56.41;100562.94;5567988;32;33728;-57
2023/04/03 06:32:47;;;;;;;5.45;4.10;;;;;;;8.11;56.17;100565.72;5568030;32;34446;-57
2023/04/03 06:35:56;;;;;;;5.50;3.60;;;;;;;8.34;64.31;100571.69;5566723;32;33604;-57
2023/04/03 06:38:59;;;;;;;5.57;3.87;;;;;;;8.24;55.42;100561.75;5554296;32;33575;-57
2023/04/03 06:42:02;;;;;;;8.13;4.50;;;;;;;8.73;65.25;100574.81;5558246;32;34277;-57
2023/04/03 06:45:05;;;;;;;5.68;3.92;;;;;;;8.91;71.18;100563.66;5556357;32;32016;-57
2023/04/03 06:48:08;;;;;;;5.35;4.40;;;;;;;9.04;57.68;100574.88;5560648;32;33910;-57
2023/04/03 06:51:18;;;;;;;5.78;3.62;;;;;;;9.43;85.90;100574.41;5566234;32;33287;-57
2023/04/03 06:54:22;;;;;;;6.10;3.37;;;;;;;9.50;56.67;100582.94;5566124;32;33719;-57
2023/04/03 06:57:26;;;;;;;4.75;3.55;;;;;;;8.98;53.91;100584.78;5552078;31;33390;-57
2023/04/03 07:00:30;;;;;;;4.95;3.83;;;;;;;8.83;54.37;100587.41;5555571;32;33782;-57
2023/04/03 07:03:32;;;;;;;6.25;4.03;;;;;;;8.59;55.14;100584.41;5550335;32;34789;-58
2023/04/03 07:06:36;;;;;;;4.93;3.65;;;;;;;8.97;72.79;100588.50;5561797;32;34277;-58
2023/04/03 07:09:39;;;;;;;5.90;4.10;;;;;;;8.81;53.98;100592.25;5563419;32;33938;-58
2023/04/03 07:12:41;;;;;;;7.12;3.95;;;;;;;8.69;56.39;100593.25;5551443;31;33212;-58
2023/04/03 07:15:44;;;;;;;4.90;3.65;;;;;;;8.74;54.70;100592.47;5552404;32;33210;-58
2023/04/03 07:18:46;;;;;;;5.25;3.53;;;;;;;8.78;54.17;100601.56;5553365;32;34445;-58
2023/04/03 07:21:48;;;;;;;5.47;3.65;;;;;;;8.89;54.03;100599.72;5560454;32;34351;-58
2023/04/03 07:24:51;;;;;;;4.15;3.12;;;;;;;9.15;60.08;100604.06;5561123;32;32267;-58
2023/04/03 07:27:54;;;;;;;4.35;3.30;;;;;;;9.11;53.39;100604.88;5550569;32;33648;-58
2023/04/03 07:31:07;;;;;;;5.30;3.12;;;;;;;9.43;56.23;100604.62;5555193;31;33599;-58
2023/04/03 07:34:11;;;;;;;4.90;3.47;;;;;;;9.56;52.81;100606.78;5554963;32;33581;-58
2023/04/03 07:37:14;;;;;;;3.15;2.35;;;;;;;9.70;71.74;100607.06;5552801;32;33619;-58
2023/04/03 07:40:16;;;;;;;4.12;2.70;;;;;;;9.91;54.93;100597.13;5551377;32;34371;-58
2023/04/03 07:43:21;;;;;;;3.90;2.90;;;;;;;10.00;57.69;100608.06;5560150;32;33590;-58
2023/04/03 07:46:24;;;;;;;3.95;2.70;;;;;;;10.46;69.12;100621.41;5555311;31;34191;-58
2023/04/03 07:49:27;;;;;;;7.10;2.83;;;;;;;10.32;50.40;100613.94;5547857;32;33243;-58
2023/04/03 07:52:29;;;;;;;4.80;3.20;;;;;;;10.18;55.65;100614.75;5559336;32;33657;-58
2023/04/03 07:55:32;;;;;;;4.18;2.90;;;;;;;10.41;69.54;100618.75;5558323;32;33549;-58
2023/04/03 07:58:36;;;;;;;4.43;2.80;;;;;;;10.55;58.79;100620.56;5561301;32;33938;-58
2023/04/03 08:01:39;;;;;;;4.68;2.75;;;;;;;10.73;67.75;100621.84;5558548;32;34406;-58
2023/04/03 08:04:41;;;;;;;3.58;2.42;;;;;;;10.91;65.08;100616.94;5560793;31;33111;-58
2023/04/03 08:07:44;;;;;;;4.75;2.95;;;;;;;10.78;54.48;100618.31;5558952;32;35715;-58
2023/04/03 08:10:59;;;;;;;4.57;2.75;;;;;;;10.60;49.85;100630.47;5558692;31;33959;-58
2023/04/03 08:14:02;;;;;;;4.47;2.83;;;;;;;10.13;48.56;100623.59;5558740;32;34351;-58
2023/04/03 08:17:05;;;;;;;4.95;2.70;;;;;;;9.83;54.43;100629.78;5557031;32;33640;-58
2023/04/03 08:20:09;;;;;;;3.97;2.60;;;;;;;9.79;55.91;100626.84;5560126;32;33077;-58
2023/04/03 08:23:12;;;;;;;4.12;2.90;;;;;;;10.02;61.20;100632.72;5554940;32;33565;-58
2023/04/03 08:26:16;;;;;;;3.33;2.37;;;;;;;9.87;54.09;100631.69;5564632;32;33599;-58
2023/04/03 08:29:19;;;;;;;4.57;2.75;;;;;;;10.05;51.45;100626.84;5552874;32;33629;-58
2023/04/03 08:32:22;;;;;;;4.55;2.83;;;;;;;10.26;50.60;100636.44;5550878;32;33644;-58
2023/04/03 08:35:24;;;;;;;3.40;2.70;;;;;;;10.27;51.73;100634.59;5555319;32;33641;-58
2023/04/03 08:38:26;;;;;;;4.35;2.92;;;;;;;10.42;52.67;100637.22;5560146;32;34192;-58
2023/04/03 08:41:36;;;;;;;3.22;2.30;;;;;;;10.90;66.92;100632.22;5565274;32;34370;-59
2023/04/03 08:44:52;;;;;;;3.58;2.47;;;;;;;10.91;54.33;100633.81;5563670;32;34173;-58
2023/04/03 08:48:18;;;;;;;;;;;;;;;10.46;58.28;100635.62;5569305;32;33574;-59
2023/04/03 08:51:23;;;;;;;3.92;2.53;;;;;;;11.19;69.76;100637.72;5558542;32;33435;-58
2023/04/03 08:54:48;;;;;;;4.03;2.50;;;;;;;10.90;49.64;100632.22;5562153;32;33630;-60
2023/04/03 08:57:59;;;;;;;4.68;2.58;;;;;;;11.01;51.23;100636.44;5568186;32;33832;-58
2023/04/03 09:01:05;;;;;;;3.87;2.75;;;;;;;11.32;53.35;100630.91;5565157;32;34226;-59
2023/04/03 09:04:13;;;;;;;4.28;3.08;;;;;;;11.15;66.90;100627.78;5558725;32;33591;-57
2023/04/03 09:07:23;;;;;;;4.10;2.60;;;;;;;11.50;57.29;100638.28;5568010;32;34444;-57
2023/04/03 09:10:31;;;;;;;4.43;3.10;;;;;;;11.68;60.20;100636.81;5564151;32;34376;-57
2023/04/03 09:13:57;;;;;;;3.28;2.40;;;;;;;11.59;56.43;100630.47;5565500;32;34297;-57
2023/04/03 09:17:18;;;;;;;;;;;;;;;11.74;54.03;100634.88;5560142;32;33846;-57
2023/04/03 09:20:30;;;;;;;4.18;1.87;;;;;;;11.72;49.22;100640.56;5563329;32;32232;-57
2023/04/03 09:23:36;;;;;;;4.55;1.98;;;;;;;11.47;48.18;100640.75;5567999;32;33435;-57
2023/04/03 09:26:51;;;;;;;3.53;1.92;;;;;;;11.22;42.54;100637.13;5569496;32;33581;-57
2023/04/03 09:29:55;;;;;;;2.10;1.70;;;;;;;11.14;45.05;100643.09;5569466;32;34351;-57
2023/04/03 09:32:58;;;;;;;4.37;1.77;;;;;;;11.18;50.91;100636.09;5563658;32;34387;-57
2023/04/03 09:36:00;;;;;;;3.53;2.58;;;;;;;11.57;57.83;100643.34;5565478;32;33146;-57
2023/04/03 09:39:10;;;;;;;3.28;2.08;;;;;;;11.91;73.76;100646.03;5568301;32;33640;-57
2023/04/03 09:42:22;;;;;;;2.80;2.30;;;;;;;12.08;58.91;100648.31;5557011;32;34861;-58
2023/04/03 09:45:34;;;;;;;2.85;2.33;;;;;;;12.16;61.75;100644.22;5567352;32;33252;-57
2023/04/03 09:48:36;;;;;;;7.35;2.25;;;;;;;12.01;72.12;100636.28;5569031;32;34417;-57
2023/04/03 09:51:38;;;;;;;10.43;1.85;;;;;;;11.82;44.80;100642.34;5568223;32;33726;-57
2023/04/03 09:54:40;;;;;;;3.20;2.03;;;;;;;11.60;44.55;100634.72;5566457;32;33232;-57
2023/04/03 09:57:45;;;;;;;2.85;2.20;;;;;;;11.79;46.02;100629.50;5561406;32;35095;-57
2023/04/03 10:00:55;;;;;;;2.47;2.00;;;;;;;11.45;43.20;100624.09;5564043;32;34389;-57
2023/04/03 10:04:18;;;;;;;3.28;2.20;;;;;;;11.51;43.55;100633.72;5558938;32;33744;-57
2023/04/03 10:07:27;;;;;;;4.22;2.05;;;;;;;11.79;44.22;100631.34;5568462;32;33232;-57
2023/04/03 10:10:29;;;;;;;3.03;1.95;;;;;;;11.99;67.19;100628.53;5563721;31;33465;-57
2023/04/03 10:13:32;;;;;;;3.58;2.12;;;;;;;11.42;45.44;100630.84;5559916;32;33693;-57
2023/04/03 10:16:54;;;;;;;2.90;1.80;;;;;;;11.77;62.84;100642.38;5564918;32;33308;-57
2023/04/03 10:20:15;;;;;;;3.58;2.12;;;;;;;11.94;49.50;100629.38;5567468;32;33601;-57
2023/04/03 10:23:26;;;;;;;2.45;1.90;;;;;;;12.10;53.41;100630.03;5564389;32;34483;-58
2023/04/03 10:26:52;;;;;;;3.05;1.83;;;;;;;11.85;54.61;100627.56;5568866;32;33593;-57
2023/04/03 10:30:18;;;;;;;2.83;2.08;;;;;;;11.82;47.72;100630.78;5563338;32;34403;-58
2023/04/03 10:33:53;;;;;;;1.77;1.60;;;;;;;11.50;44.16;100634.81;5554644;32;35474;-57
2023/04/03 10:37:21;;;;;;;4.57;2.10;;;;;;;11.38;43.29;100634.34;5549392;31;33622;-57
2023/04/03 10:40:33;;;;;;;2.05;1.70;;;;;;;11.36;43.53;100631.97;5567179;32;34392;-57
2023/04/03 10:43:55;;;;;;;4.68;1.90;;;;;;;11.34;44.02;100628.75;5564694;32;33466;-57
2023/04/03 10:47:10;;;;;;;3.22;1.73;;;;;;;11.37;45.18;100622.03;5564018;32;34287;-57
2023/04/03 10:50:19;;;;;;;2.37;1.67;;;;;;;11.35;57.45;100624.97;5563969;32;33587;-57
2023/04/03 10:53:36;;;;;;;2.50;1.70;;;;;;;11.50;48.12;100621.38;5567501;32;34050;-57
2023/04/03 10:56:53;;;;;;;2.75;1.92;;;;;;;11.47;42.66;100628.13;5567871;32;34278;-57
2023/04/03 11:00:26;;;;;;;4.82;2.20;;;;;;;11.46;57.99;100620.34;5567493;32;33650;-57
2023/04/03 11:03:43;;;;;;;2.90;1.80;;;;;;;11.45;45.89;100613.37;5560585;32;33187;-57
2023/04/03 11:07:04;;;;;;;1.60;1.50;;;;;;;11.25;42.48;100620.47;5566058;32;33719;-58
2023/04/03 11:10:17;;;;;;;2.22;1.70;;;;;;;11.24;42.17;100618.06;5568105;32;34266;-58
2023/04/03 11:13:28;;;;;;;2.15;1.75;;;;;;;11.36;52.68;100617.75;5560993;32;33723;-58
2023/04/03 11:16:37;;;;;;;2.22;1.60;;;;;;;11.52;52.19;100620.03;5553791;32;34053;-58
2023/04/03 11:20:01;;;;;;;2.33;1.58;;;;;;;11.69;57.17;100622.31;5554501;32;33891;-58
2023/04/03 11:23:13;;;;;;;2.50;1.90;;;;;;;11.82;44.03;100609.28;5556519;32;33727;-58
2023/04/03 11:26:25;;;;;;;4.30;1.87;;;;;;;12.01;44.74;100607.53;5554645;32;34401;-58
2023/04/03 11:29:33;;;;;;;2.78;1.75;;;;;;;11.76;42.37;100595.12;5557931;32;34361;-58
2023/04/03 11:32:55;;;;;;;3.08;2.30;;;;;;;11.60;41.70;100605.19;5555765;32;33570;-59
2023/04/03 11:36:04;;;;;;;2.47;1.70;;;;;;;11.40;41.07;100594.62;5553473;32;34352;-58
2023/04/03 11:39:31;;;;;;;2.60;1.80;;;;;;;11.44;53.55;100587.59;5559723;32;32360;-58
2023/04/03 11:42:38;;;;;;;4.93;1.90;;;;;;;12.00;54.46;100576.37;5562332;32;33326;-59
2023/04/03 11:45:54;;;;;;;3.80;1.67;;;;;;;12.25;56.16;100591.47;5560187;32;33370;-59
2023/04/03 11:48:57;;;;;;;2.10;1.62;;;;;;;12.25;56.51;100590.63;5552411;32;33386;-58
2023/04/03 11:51:59;;;;;;;2.28;1.67;;;;;;;12.42;56.60;100585.63;5558138;32;33712;-59
2023/04/03 11:55:02;;;;;;;1.45;1.35;;;;;;;11.89;41.84;100589.13;5560624;32;34336;-59
2023/04/03 11:58:14;;;;;;;1.80;1.50;;;;;;;11.87;40.00;100590.50;5554571;32;33767;-58
2023/04/03 12:01:43;;;;;;;1.73;1.60;;;;;;;12.03;55.82;100588.47;5563805;32;34403;-60
2023/04/03 12:05:29;;;;;;;2.25;1.50;;;;;;;12.44;53.99;100594.19;5567593;32;34291;-58
2023/04/03 12:08:40;;;;;;;2.30;1.80;;;;;;;12.18;50.99;100586.37;5557906;32;33719;-58
2023/04/03 12:11:43;;;;;;;10.07;1.60;;;;;;;12.30;48.62;100575.25;5567520;32;33733;-59
2023/04/03 12:14:46;;;;;;;3.10;1.52;;;;;;;12.20;43.31;100572.69;5558921;32;34448;-59
2023/04/03 12:17:51;;;;;;;2.35;1.50;;;;;;;12.06;40.17;100579.84;5553291;32;34400;-58
2023/04/03 12:20:57;;;;;;;2.30;1.52;;;;;;;11.98;54.47;100576.66;5568731;32;32198;-58
2023/04/03 12:24:08;;;;;;;3.70;1.40;;;;;;;12.34;65.50;100581.66;5567666;32;32498;-60
2023/04/03 12:27:25;;;;;;;1.75;1.02;;;;;;;12.37;44.32;100572.22;5568941;32;33729;-59
2023/04/03 12:30:30;;;;;;;1.65;1.30;;;;;;;12.39;61.49;100570.06;5568491;32;33796;-59
2023/04/03 12:33:56;;;;;;;1.95;1.40;;;;;;;12.07;42.15;100562.63;5568870;32;33503;-58
2023/04/03 12:37:37;;;;;;;1.50;1.30;;;;;;;12.10;63.20;100565.53;5568080;32;34307;-58
2023/04/03 12:40:47;;;;;;;1.98;1.50;;;;;;;11.87;42.85;100567.13;5568520;32;34574;-58
2023/04/03 12:44:20;;;;;;;1.73;1.20;;;;;;;11.94;57.44;100572.16;5567667;32;33723;-58
2023/04/03 12:47:27;;;;;;;1.52;1.30;;;;;;;12.12;57.25;100567.91;5569453;32;33372;-59
2023/04/03 12:50:32;;;;;;;1.83;1.40;;;;;;;12.49;49.76;100555.69;5569761;32;33627;-58
2023/04/03 12:53:38;;;;;;;1.55;1.33;;;;;;;12.28;40.44;100566.66;5569914;32;33664;-59
2023/04/03 12:56:41;;;;;;;2.75;1.55;;;;;;;12.20;50.05;100559.25;5570096;32;33573;-58
2023/04/03 12:59:46;;;;;;;1.52;1.40;;;;;;;12.35;46.21;100560.94;5569387;32;34226;-59
2023/04/03 13:02:49;;;;;;;1.90;1.40;;;;;;;12.58;63.82;100562.81;5569357;32;34284;-59
2023/04/03 13:06:01;;;;;;;2.05;1.70;;;;;;;12.52;48.51;100549.75;5568519;32;34343;-59
2023/04/03 13:09:05;;;;;;;1.55;1.35;;;;;;;12.75;55.58;100548.06;5569925;32;33624;-58
2023/04/03 13:12:12;;;;;;;1.90;1.70;;;;;;;12.68;47.77;100538.47;5558806;32;34320;-58
2023/04/03 13:15:28;;;;;;;1.85;1.62;;;;;;;12.38;39.74;100537.00;5566221;32;33719;-58
2023/04/03 13:18:35;;;;;;;2.00;1.40;;;;;;;11.98;40.24;100538.25;5566123;32;33704;-58
2023/04/03 13:21:37;;;;;;;2.05;1.67;;;;;;;12.26;57.91;100535.81;5568451;32;34366;-58
2023/04/03 13:24:40;;;;;;;2.28;1.40;;;;;;;12.41;42.00;100527.53;5569560;32;33699;-58
2023/04/03 13:27:44;;;;;;;1.48;1.20;;;;;;;11.96;40.81;100532.37;5569868;32;33919;-58
2023/04/03 13:31:22;;;;;;;1.62;1.50;;;;;;;11.68;40.95;100526.69;5563944;32;34275;-59
2023/04/03 13:34:27;;;;;;;2.05;1.52;;;;;;;11.55;41.53;100530.06;5552008;32;33814;-58
2023/04/03 13:37:32;;;;;;;1.73;1.35;;;;;;;11.72;42.91;100530.44;5568167;32;34237;-58
2023/04/03 13:41:09;;;;;;;2.50;1.30;;;;;;;11.59;40.24;100519.53;5567203;32;33752;-59
2023/04/03 13:44:20;;;;;;;3.70;1.60;;;;;;;11.76;54.00;100526.09;5569439;31;33400;-58
2023/04/03 13:47:25;;;;;;;1.40;1.30;;;;;;;11.94;42.03;100526.47;5557434;32;33630;-58
2023/04/03 13:50:28;;;;;;;1.60;1.30;;;;;;;12.15;45.85;100529.72;5568965;32;33747;-58
2023/04/03 13:53:34;;;;;;;1.55;1.27;;;;;;;12.09;42.60;100526.31;5567680;32;33799;-59
2023/04/03 13:56:41;;;;;;;2.33;1.55;;;;;;;12.09;38.98;100520.16;5569797;32;34522;-59
2023/04/03 13:59:44;;;;;;;2.25;1.60;;;;;;;12.12;42.70;100514.19;5561188;32;33541;-58
2023/04/03 14:02:48;;;;;;;3.33;1.75;;;;;;;12.32;48.95;100510.47;5569338;32;33604;-59
2023/04/03 14:05:50;;;;;;;2.22;1.42;;;;;;;12.52;52.37;100510.19;5568880;32;33592;-58
2023/04/03 14:08:53;;;;;;;3.47;1.62;;;;;;;12.41;43.00;100506.81;5566835;32;33608;-58
2023/04/03 14:12:04;;;;;;;2.30;1.52;;;;;;;12.06;38.50;100508.06;5550060;32;33569;-59
2023/04/03 14:15:26;;;;;;;2.15;1.40;;;;;;;11.94;39.25;100507.66;5550193;32;33666;-58
2023/04/03 14:18:28;;;;;;;1.55;1.40;;;;;;;11.83;39.02;100500.78;5563635;32;34387;-58
2023/04/03 14:21:30;;;;;;;3.22;1.70;;;;;;;12.20;52.54;100498.22;5549771;32;33768;-58
2023/04/03 14:24:32;;;;;;;2.33;1.40;;;;;;;12.19;42.46;100493.16;5548800;32;33625;-58
2023/04/03 14:27:40;;;;;;;2.53;1.48;;;;;;;12.53;43.01;100497.53;5549879;32;33325;-59
2023/04/03 14:30:44;;;;;;;1.98;1.42;;;;;;;12.46;45.80;100495.22;5563496;32;33710;-58
2023/04/03 14:33:47;;;;;;;1.52;1.40;;;;;;;12.58;46.81;100498.28;5568781;32;33805;-59
2023/04/03 14:36:52;;;;;;;2.22;1.60;;;;;;;12.44;39.63;100497.38;5561924;32;33673;-58
2023/04/03 14:40:00;;;;;;;2.85;1.48;;;;;;;12.27;48.03;100489.00;5569339;32;33726;-58
2023/04/03 14:43:02;;;;;;;3.55;1.70;;;;;;;12.48;46.22;100494.91;5568445;32;33639;-58
2023/04/03 14:46:10;;;;;;;1.73;1.50;;;;;;;12.19;44.37;100499.31;5569170;32;33668;-58
2023/04/03 14:49:21;;;;;;;3.25;1.55;;;;;;;12.48;44.62;100501.09;5568550;32;33864;-58
2023/04/03 14:52:27;;;;;;;1.60;1.30;;;;;;;12.18;40.02;100500.38;5568936;32;34325;-59
2023/04/03 14:55:30;;;;;;;2.12;1.55;;;;;;;12.35;47.69;100507.19;5568579;32;34418;-58
2023/04/03 14:58:32;;;;;;;2.45;1.70;;;;;;;12.12;40.90;100511.47;5568382;31;33842;-58
2023/04/03 15:01:34;;;;;;;2.08;1.37;;;;;;;11.97;38.57;100509.78;5568861;32;34255;-59
2023/04/03 15:04:37;;;;;;;2.42;1.48;;;;;;;11.89;46.63;100505.06;5569146;32;33537;-58
2023/04/03 15:07:48;;;;;;;2.05;1.70;;;;;;;12.07;42.80;100511.56;5568498;32;33673;-58
2023/04/03 15:10:55;;;;;;;3.17;1.65;;;;;;;12.07;40.23;100498.13;5569000;32;34348;-58
2023/04/03 15:13:57;;;;;;;2.95;1.50;;;;;;;11.75;38.46;100503.03;5569038;32;33662;-58
2023/04/03 15:30:07;;;;;;;4.90;2.22;;;;;;;11.47;43.24;100501.16;5568564;32;35322;-58
2023/04/03 15:33:10;;;;;;;4.12;2.10;;;;;;;11.14;40.77;100516.19;5567391;32;33785;-58
2023/04/03 15:36:12;;;;;;;4.40;2.60;;;;;;;11.04;40.64;100500.97;5567317;32;33519;-58
2023/04/03 15:39:34;;;;;;;3.03;2.03;;;;;;;10.94;43.03;100503.72;5568626;32;33719;-58
2023/04/03 15:42:37;;;;;;;3.90;2.20;;;;;;;10.81;42.25;100508.63;5568420;32;34200;-58
2023/04/03 15:45:40;;;;;;;3.15;1.80;;;;;;;10.66;40.72;100506.06;5568669;32;33789;-58
2023/04/03 15:48:44;;;;;;;2.97;2.08;;;;;;;10.66;40.04;100506.06;5568512;32;33662;-58
2023/04/03 15:51:47;;;;;;;4.72;2.20;;;;;;;10.71;42.88;100506.00;5566605;32;34330;-58
